sensor_id;sensor_type;location;lat;lon;timestamp;P1;durP1;ratioP1;P2;durP2;ratioP2
17953;SDS011;9102;53.548;9.926;2022-09-28T00:00:59;5.63;;;4.53;;
17953;SDS011;9102;53.548;9.926;2022-09-28T00:03:31;9.57;;;4.55;;
17953;SDS011;9102;53.548;9.926;2022-09-28T00:05:59;8.57;;;5.10;;
17953;SDS011;9102;53.548;9.926;2022-09-28T00:08:27;10.25;;;5.30;;
17953;SDS011;9102;53.548;9.926;2022-09-28T00:10:54;7.90;;;5.25;;
17953;SDS011;9102;53.548;9.926;2022-09-28T00:13:23;8.43;;;5.20;;
17953;SDS011;9102;53.548;9.926;2022-09-28T00:15:57;8.55;;;5.15;;
17953;SDS011;9102;53.548;9.926;2022-09-28T00:18:25;7.07;;;4.60;;
17953;SDS011;9102;53.548;9.926;2022-09-28T00:20:58;6.10;;;4.85;;
17953;SDS011;9102;53.548;9.926;2022-09-28T00:23:26;9.13;;;5.55;;
17953;SDS011;9102;53.548;9.926;2022-09-28T00:25:53;7.75;;;5.10;;
17953;SDS011;9102;53.548;9.926;2022-09-28T00:28:19;8.90;;;5.20;;
17953;SDS011;9102;53.548;9.926;2022-09-28T00:30:53;8.48;;;5.68;;
17953;SDS011;9102;53.548;9.926;2022-09-28T00:33:20;11.07;;;5.95;;
17953;SDS011;9102;53.548;9.926;2022-09-28T00:35:53;8.20;;;5.07;;
17953;SDS011;9102;53.548;9.926;2022-09-28T00:38:20;7.43;;;4.63;;
17953;SDS011;9102;53.548;9.926;2022-09-28T00:40:47;13.07;;;6.13;;
17953;SDS011;9102;53.548;9.926;2022-09-28T00:43:17;11.10;;;5.70;;
17953;SDS011;9102;53.548;9.926;2022-09-28T00:45:44;9.55;;;5.88;;
17953;SDS011;9102;53.548;9.926;2022-09-28T00:48:15;10.70;;;5.65;;
17953;SDS011;9102;53.548;9.926;2022-09-28T00:50:41;7.63;;;5.68;;
17953;SDS011;9102;53.548;9.926;2022-09-28T00:53:10;8.85;;;5.10;;
17953;SDS011;9102;53.548;9.926;2022-09-28T00:55:41;6.95;;;5.35;;
17953;SDS011;9102;53.548;9.926;2022-09-28T00:58:12;8.40;;;5.15;;
17953;SDS011;9102;53.548;9.926;2022-09-28T01:00:45;6.57;;;5.03;;
17953;SDS011;9102;53.548;9.926;2022-09-28T01:03:15;10.32;;;5.68;;
17953;SDS011;9102;53.548;9.926;2022-09-28T01:05:43;7.25;;;5.88;;
17953;SDS011;9102;53.548;9.926;2022-09-28T01:08:11;8.05;;;5.82;;
17953;SDS011;9102;53.548;9.926;2022-09-28T01:10:38;9.82;;;5.93;;
17953;SDS011;9102;53.548;9.926;2022-09-28T01:13:07;8.63;;;6.45;;
17953;SDS011;9102;53.548;9.926;2022-09-28T01:15:37;8.48;;;5.90;;
17953;SDS011;9102;53.548;9.926;2022-09-28T01:18:11;8.00;;;5.85;;
17953;SDS011;9102;53.548;9.926;2022-09-28T01:20:49;10.18;;;6.63;;
17953;SDS011;9102;53.548;9.926;2022-09-28T01:23:27;13.07;;;6.20;;
17953;SDS011;9102;53.548;9.926;2022-09-28T01:26:29;10.30;;;6.53;;
17953;SDS011;9102;53.548;9.926;2022-09-28T01:32:30;9.27;;;6.97;;
17953;SDS011;9102;53.548;9.926;2022-09-28T01:35:02;10.38;;;6.65;;
17953;SDS011;9102;53.548;9.926;2022-09-28T01:37:34;12.32;;;7.38;;
17953;SDS011;9102;53.548;9.926;2022-09-28T01:40:07;10.27;;;6.97;;
17953;SDS011;9102;53.548;9.926;2022-09-28T01:42:38;9.85;;;6.50;;
17953;SDS011;9102;53.548;9.926;2022-09-28T01:45:09;11.57;;;6.97;;
17953;SDS011;9102;53.548;9.926;2022-09-28T01:47:40;12.40;;;7.35;;
17953;SDS011;9102;53.548;9.926;2022-09-28T01:50:10;9.73;;;6.80;;
17953;SDS011;9102;53.548;9.926;2022-09-28T01:52:42;10.18;;;6.85;;
17953;SDS011;9102;53.548;9.926;2022-09-28T01:55:14;11.77;;;7.03;;
17953;SDS011;9102;53.548;9.926;2022-09-28T01:57:47;14.13;;;7.32;;
17953;SDS011;9102;53.548;9.926;2022-09-28T02:00:17;12.25;;;7.65;;
17953;SDS011;9102;53.548;9.926;2022-09-28T02:02:46;12.02;;;8.02;;
17953;SDS011;9102;53.548;9.926;2022-09-28T02:05:18;12.00;;;7.65;;
17953;SDS011;9102;53.548;9.926;2022-09-28T02:07:50;11.63;;;8.00;;
17953;SDS011;9102;53.548;9.926;2022-09-28T02:10:22;11.13;;;7.53;;
17953;SDS011;9102;53.548;9.926;2022-09-28T02:12:56;15.18;;;8.90;;
17953;SDS011;9102;53.548;9.926;2022-09-28T02:15:32;12.77;;;8.27;;
17953;SDS011;9102;53.548;9.926;2022-09-28T02:18:02;17.52;;;8.70;;
17953;SDS011;9102;53.548;9.926;2022-09-28T02:20:29;13.88;;;8.18;;
17953;SDS011;9102;53.548;9.926;2022-09-28T02:22:59;13.93;;;8.60;;
17953;SDS011;9102;53.548;9.926;2022-09-28T02:25:29;17.88;;;9.85;;
17953;SDS011;9102;53.548;9.926;2022-09-28T02:28:02;16.33;;;9.55;;
17953;SDS011;9102;53.548;9.926;2022-09-28T02:30:30;17.98;;;10.00;;
17953;SDS011;9102;53.548;9.926;2022-09-28T02:32:59;14.68;;;9.68;;
17953;SDS011;9102;53.548;9.926;2022-09-28T02:35:30;18.73;;;9.43;;
17953;SDS011;9102;53.548;9.926;2022-09-28T02:37:58;14.80;;;9.38;;
17953;SDS011;9102;53.548;9.926;2022-09-28T02:40:28;13.75;;;9.18;;
17953;SDS011;9102;53.548;9.926;2022-09-28T02:42:58;16.63;;;9.30;;
17953;SDS011;9102;53.548;9.926;2022-09-28T02:45:39;16.25;;;9.38;;
17953;SDS011;9102;53.548;9.926;2022-09-28T02:48:17;13.85;;;9.07;;
17953;SDS011;9102;53.548;9.926;2022-09-28T02:50:55;15.57;;;8.18;;
17953;SDS011;9102;53.548;9.926;2022-09-28T02:53:34;15.25;;;9.30;;
17953;SDS011;9102;53.548;9.926;2022-09-28T02:56:19;15.90;;;8.15;;
17953;SDS011;9102;53.548;9.926;2022-09-28T02:59:02;13.93;;;8.60;;
17953;SDS011;9102;53.548;9.926;2022-09-28T03:01:39;12.02;;;8.55;;
17953;SDS011;9102;53.548;9.926;2022-09-28T03:04:17;16.75;;;9.30;;
17953;SDS011;9102;53.548;9.926;2022-09-28T03:06:53;15.65;;;9.70;;
17953;SDS011;9102;53.548;9.926;2022-09-28T03:09:27;18.40;;;10.27;;
17953;SDS011;9102;53.548;9.926;2022-09-28T03:11:59;17.05;;;10.30;;
17953;SDS011;9102;53.548;9.926;2022-09-28T03:14:32;19.20;;;11.52;;
17953;SDS011;9102;53.548;9.926;2022-09-28T03:16:59;15.10;;;11.05;;
17953;SDS011;9102;53.548;9.926;2022-09-28T03:19:26;16.30;;;10.60;;
17953;SDS011;9102;53.548;9.926;2022-09-28T03:21:55;14.93;;;9.77;;
17953;SDS011;9102;53.548;9.926;2022-09-28T03:24:23;15.23;;;9.48;;
17953;SDS011;9102;53.548;9.926;2022-09-28T03:26:49;20.15;;;10.40;;
17953;SDS011;9102;53.548;9.926;2022-09-28T03:29:16;14.73;;;9.70;;
17953;SDS011;9102;53.548;9.926;2022-09-28T03:31:45;17.77;;;10.77;;
17953;SDS011;9102;53.548;9.926;2022-09-28T03:37:35;16.00;;;10.05;;
17953;SDS011;9102;53.548;9.926;2022-09-28T03:40:02;14.90;;;10.20;;
17953;SDS011;9102;53.548;9.926;2022-09-28T03:42:29;15.98;;;10.52;;
17953;SDS011;9102;53.548;9.926;2022-09-28T03:44:56;15.63;;;10.18;;
17953;SDS011;9102;53.548;9.926;2022-09-28T03:47:24;18.90;;;10.25;;
17953;SDS011;9102;53.548;9.926;2022-09-28T03:49:50;16.38;;;10.68;;
17953;SDS011;9102;53.548;9.926;2022-09-28T03:52:17;17.13;;;11.15;;
17953;SDS011;9102;53.548;9.926;2022-09-28T03:54:44;14.50;;;10.93;;
17953;SDS011;9102;53.548;9.926;2022-09-28T03:57:11;19.08;;;11.52;;
17953;SDS011;9102;53.548;9.926;2022-09-28T03:59:37;18.95;;;11.45;;
17953;SDS011;9102;53.548;9.926;2022-09-28T04:02:04;16.83;;;11.63;;
17953;SDS011;9102;53.548;9.926;2022-09-28T04:04:32;18.08;;;11.80;;
17953;SDS011;9102;53.548;9.926;2022-09-28T04:06:59;19.73;;;11.30;;
17953;SDS011;9102;53.548;9.926;2022-09-28T04:09:26;15.95;;;11.35;;
17953;SDS011;9102;53.548;9.926;2022-09-28T04:11:53;17.45;;;11.43;;
17953;SDS011;9102;53.548;9.926;2022-09-28T04:14:20;19.52;;;11.93;;
17953;SDS011;9102;53.548;9.926;2022-09-28T04:16:46;16.52;;;11.60;;
17953;SDS011;9102;53.548;9.926;2022-09-28T04:19:16;18.85;;;11.32;;
17953;SDS011;9102;53.548;9.926;2022-09-28T04:21:45;15.57;;;10.93;;
17953;SDS011;9102;53.548;9.926;2022-09-28T04:24:12;18.73;;;11.00;;
17953;SDS011;9102;53.548;9.926;2022-09-28T04:26:38;18.80;;;11.60;;
17953;SDS011;9102;53.548;9.926;2022-09-28T04:29:07;17.13;;;11.45;;
17953;SDS011;9102;53.548;9.926;2022-09-28T04:31:43;20.75;;;13.32;;
17953;SDS011;9102;53.548;9.926;2022-09-28T04:34:13;21.48;;;13.13;;
17953;SDS011;9102;53.548;9.926;2022-09-28T04:36:41;21.08;;;13.40;;
17953;SDS011;9102;53.548;9.926;2022-09-28T04:39:10;22.90;;;14.00;;
17953;SDS011;9102;53.548;9.926;2022-09-28T04:41:38;20.50;;;13.73;;
17953;SDS011;9102;53.548;9.926;2022-09-28T04:44:05;22.85;;;14.88;;
17953;SDS011;9102;53.548;9.926;2022-09-28T04:46:32;23.27;;;15.20;;
17953;SDS011;9102;53.548;9.926;2022-09-28T04:48:59;33.33;;;16.60;;
17953;SDS011;9102;53.548;9.926;2022-09-28T04:51:25;28.98;;;16.85;;
17953;SDS011;9102;53.548;9.926;2022-09-28T04:53:55;26.00;;;16.25;;
17953;SDS011;9102;53.548;9.926;2022-09-28T04:56:23;32.38;;;17.77;;
17953;SDS011;9102;53.548;9.926;2022-09-28T04:58:50;27.65;;;17.85;;
17953;SDS011;9102;53.548;9.926;2022-09-28T05:01:17;29.13;;;18.10;;
17953;SDS011;9102;53.548;9.926;2022-09-28T05:03:47;31.33;;;19.08;;
17953;SDS011;9102;53.548;9.926;2022-09-28T05:06:14;31.67;;;17.95;;
17953;SDS011;9102;53.548;9.926;2022-09-28T05:08:42;31.42;;;18.17;;
17953;SDS011;9102;53.548;9.926;2022-09-28T05:11:11;30.20;;;18.40;;
17953;SDS011;9102;53.548;9.926;2022-09-28T05:13:41;31.35;;;19.48;;
17953;SDS011;9102;53.548;9.926;2022-09-28T05:16:09;35.40;;;20.17;;
17953;SDS011;9102;53.548;9.926;2022-09-28T05:18:37;37.13;;;19.52;;
17953;SDS011;9102;53.548;9.926;2022-09-28T05:21:07;33.75;;;19.98;;
17953;SDS011;9102;53.548;9.926;2022-09-28T05:23:36;33.20;;;19.50;;
17953;SDS011;9102;53.548;9.926;2022-09-28T05:26:03;36.50;;;20.08;;
17953;SDS011;9102;53.548;9.926;2022-09-28T05:28:31;36.75;;;20.40;;
17953;SDS011;9102;53.548;9.926;2022-09-28T05:30:59;35.53;;;20.08;;
17953;SDS011;9102;53.548;9.926;2022-09-28T05:33:27;29.92;;;18.42;;
17953;SDS011;9102;53.548;9.926;2022-09-28T05:35:55;40.97;;;23.13;;
17953;SDS011;9102;53.548;9.926;2022-09-28T05:38:22;41.70;;;25.63;;
17953;SDS011;9102;53.548;9.926;2022-09-28T05:40:49;34.58;;;20.40;;
17953;SDS011;9102;53.548;9.926;2022-09-28T05:43:16;32.90;;;19.65;;
17953;SDS011;9102;53.548;9.926;2022-09-28T05:45:43;34.78;;;20.65;;
17953;SDS011;9102;53.548;9.926;2022-09-28T05:48:12;40.03;;;20.85;;
17953;SDS011;9102;53.548;9.926;2022-09-28T05:50:38;32.63;;;20.02;;
17953;SDS011;9102;53.548;9.926;2022-09-28T05:53:06;33.55;;;19.30;;
17953;SDS011;9102;53.548;9.926;2022-09-28T05:55:34;32.80;;;19.88;;
17953;SDS011;9102;53.548;9.926;2022-09-28T05:58:02;32.13;;;19.00;;
17953;SDS011;9102;53.548;9.926;2022-09-28T06:00:30;33.50;;;19.65;;
17953;SDS011;9102;53.548;9.926;2022-09-28T06:02:58;35.72;;;20.58;;
17953;SDS011;9102;53.548;9.926;2022-09-28T06:05:27;34.60;;;20.17;;
17953;SDS011;9102;53.548;9.926;2022-09-28T06:07:55;33.08;;;20.42;;
17953;SDS011;9102;53.548;9.926;2022-09-28T06:10:23;37.92;;;20.92;;
17953;SDS011;9102;53.548;9.926;2022-09-28T06:12:51;37.45;;;21.17;;
17953;SDS011;9102;53.548;9.926;2022-09-28T06:15:18;35.60;;;21.90;;
17953;SDS011;9102;53.548;9.926;2022-09-28T06:17:45;38.83;;;23.30;;
17953;SDS011;9102;53.548;9.926;2022-09-28T06:20:12;35.38;;;22.85;;
17953;SDS011;9102;53.548;9.926;2022-09-28T06:22:40;36.03;;;21.83;;
17953;SDS011;9102;53.548;9.926;2022-09-28T06:25:07;36.33;;;22.25;;
17953;SDS011;9102;53.548;9.926;2022-09-28T06:27:34;36.38;;;22.83;;
17953;SDS011;9102;53.548;9.926;2022-09-28T06:30:01;35.22;;;21.50;;
17953;SDS011;9102;53.548;9.926;2022-09-28T06:32:28;38.75;;;23.20;;
17953;SDS011;9102;53.548;9.926;2022-09-28T06:34:55;38.70;;;23.58;;
17953;SDS011;9102;53.548;9.926;2022-09-28T06:37:22;40.15;;;21.73;;
17953;SDS011;9102;53.548;9.926;2022-09-28T06:39:51;40.30;;;22.88;;
17953;SDS011;9102;53.548;9.926;2022-09-28T06:42:18;43.25;;;22.63;;
17953;SDS011;9102;53.548;9.926;2022-09-28T06:44:45;36.55;;;21.48;;
17953;SDS011;9102;53.548;9.926;2022-09-28T06:47:12;37.55;;;21.42;;
17953;SDS011;9102;53.548;9.926;2022-09-28T06:49:39;39.83;;;21.90;;
17953;SDS011;9102;53.548;9.926;2022-09-28T06:52:05;40.58;;;22.30;;
17953;SDS011;9102;53.548;9.926;2022-09-28T06:54:32;36.20;;;21.15;;
17953;SDS011;9102;53.548;9.926;2022-09-28T06:57:00;38.85;;;21.90;;
17953;SDS011;9102;53.548;9.926;2022-09-28T06:59:27;40.30;;;23.17;;
17953;SDS011;9102;53.548;9.926;2022-09-28T07:01:55;33.13;;;20.92;;
17953;SDS011;9102;53.548;9.926;2022-09-28T07:04:22;35.88;;;20.45;;
17953;SDS011;9102;53.548;9.926;2022-09-28T07:06:48;34.90;;;20.70;;
17953;SDS011;9102;53.548;9.926;2022-09-28T07:09:15;44.72;;;23.27;;
17953;SDS011;9102;53.548;9.926;2022-09-28T07:11:42;36.38;;;21.40;;
17953;SDS011;9102;53.548;9.926;2022-09-28T07:14:10;35.55;;;22.88;;
17953;SDS011;9102;53.548;9.926;2022-09-28T07:16:37;40.42;;;23.00;;
17953;SDS011;9102;53.548;9.926;2022-09-28T07:19:04;37.00;;;21.77;;
17953;SDS011;9102;53.548;9.926;2022-09-28T07:21:31;41.00;;;24.45;;
17953;SDS011;9102;53.548;9.926;2022-09-28T07:23:58;37.90;;;22.75;;
17953;SDS011;9102;53.548;9.926;2022-09-28T07:26:25;35.25;;;21.23;;
17953;SDS011;9102;53.548;9.926;2022-09-28T07:28:52;41.00;;;24.13;;
17953;SDS011;9102;53.548;9.926;2022-09-28T07:31:21;38.97;;;23.65;;
17953;SDS011;9102;53.548;9.926;2022-09-28T07:33:49;38.25;;;21.52;;
17953;SDS011;9102;53.548;9.926;2022-09-28T07:36:18;40.97;;;21.90;;
17953;SDS011;9102;53.548;9.926;2022-09-28T07:38:46;41.10;;;21.15;;
17953;SDS011;9102;53.548;9.926;2022-09-28T07:41:13;38.08;;;22.80;;
17953;SDS011;9102;53.548;9.926;2022-09-28T07:43:42;49.05;;;23.98;;
17953;SDS011;9102;53.548;9.926;2022-09-28T07:46:08;42.35;;;22.88;;
17953;SDS011;9102;53.548;9.926;2022-09-28T07:48:41;43.00;;;22.50;;
17953;SDS011;9102;53.548;9.926;2022-09-28T07:51:09;42.08;;;21.85;;
17953;SDS011;9102;53.548;9.926;2022-09-28T07:53:36;38.95;;;22.10;;
17953;SDS011;9102;53.548;9.926;2022-09-28T07:56:04;38.80;;;23.67;;
17953;SDS011;9102;53.548;9.926;2022-09-28T07:58:32;40.05;;;21.67;;
17953;SDS011;9102;53.548;9.926;2022-09-28T08:01:04;38.05;;;22.48;;
17953;SDS011;9102;53.548;9.926;2022-09-28T08:03:32;46.17;;;22.83;;
17953;SDS011;9102;53.548;9.926;2022-09-28T08:06:02;37.58;;;22.55;;
17953;SDS011;9102;53.548;9.926;2022-09-28T08:08:32;44.25;;;23.05;;
17953;SDS011;9102;53.548;9.926;2022-09-28T08:10:59;41.13;;;22.50;;
17953;SDS011;9102;53.548;9.926;2022-09-28T08:13:25;46.10;;;22.73;;
17953;SDS011;9102;53.548;9.926;2022-09-28T08:15:52;38.50;;;21.40;;
17953;SDS011;9102;53.548;9.926;2022-09-28T08:18:20;40.33;;;22.75;;
17953;SDS011;9102;53.548;9.926;2022-09-28T08:20:50;42.30;;;23.13;;
17953;SDS011;9102;53.548;9.926;2022-09-28T08:23:36;41.33;;;21.27;;
17953;SDS011;9102;53.548;9.926;2022-09-28T08:26:03;39.97;;;21.85;;
17953;SDS011;9102;53.548;9.926;2022-09-28T08:28:30;38.45;;;21.65;;
17953;SDS011;9102;53.548;9.926;2022-09-28T08:30:57;36.28;;;20.48;;
17953;SDS011;9102;53.548;9.926;2022-09-28T08:33:26;43.83;;;21.52;;
17953;SDS011;9102;53.548;9.926;2022-09-28T08:35:56;34.45;;;21.05;;
17953;SDS011;9102;53.548;9.926;2022-09-28T08:38:23;37.28;;;19.70;;
17953;SDS011;9102;53.548;9.926;2022-09-28T08:40:55;38.35;;;20.30;;
17953;SDS011;9102;53.548;9.926;2022-09-28T08:46:40;41.72;;;21.98;;
17953;SDS011;9102;53.548;9.926;2022-09-28T08:49:11;44.90;;;22.67;;
17953;SDS011;9102;53.548;9.926;2022-09-28T08:51:44;43.85;;;22.05;;
17953;SDS011;9102;53.548;9.926;2022-09-28T08:54:22;39.67;;;21.48;;
17953;SDS011;9102;53.548;9.926;2022-09-28T08:56:56;39.83;;;22.35;;
17953;SDS011;9102;53.548;9.926;2022-09-28T08:59:27;41.47;;;23.52;;
17953;SDS011;9102;53.548;9.926;2022-09-28T09:02:01;41.83;;;23.17;;
17953;SDS011;9102;53.548;9.926;2022-09-28T09:04:29;41.65;;;22.40;;
17953;SDS011;9102;53.548;9.926;2022-09-28T09:07:15;40.05;;;23.40;;
17953;SDS011;9102;53.548;9.926;2022-09-28T09:09:59;40.05;;;23.05;;
17953;SDS011;9102;53.548;9.926;2022-09-28T09:12:36;40.60;;;22.48;;
17953;SDS011;9102;53.548;9.926;2022-09-28T09:15:17;42.65;;;22.27;;
17953;SDS011;9102;53.548;9.926;2022-09-28T09:17:53;37.67;;;21.30;;
17953;SDS011;9102;53.548;9.926;2022-09-28T09:20:31;37.28;;;20.58;;
17953;SDS011;9102;53.548;9.926;2022-09-28T09:23:09;35.38;;;20.35;;
17953;SDS011;9102;53.548;9.926;2022-09-28T09:25:45;36.97;;;20.65;;
17953;SDS011;9102;53.548;9.926;2022-09-28T09:31:24;39.60;;;22.48;;
17953;SDS011;9102;53.548;9.926;2022-09-28T09:34:12;34.63;;;20.60;;
17953;SDS011;9102;53.548;9.926;2022-09-28T09:37:10;39.30;;;22.90;;
17953;SDS011;9102;53.548;9.926;2022-09-28T09:39:47;39.90;;;22.70;;
17953;SDS011;9102;53.548;9.926;2022-09-28T09:42:27;40.83;;;22.85;;
17953;SDS011;9102;53.548;9.926;2022-09-28T09:45:12;38.50;;;21.00;;
17953;SDS011;9102;53.548;9.926;2022-09-28T09:48:10;41.95;;;21.65;;
17953;SDS011;9102;53.548;9.926;2022-09-28T09:50:44;35.65;;;19.60;;
17953;SDS011;9102;53.548;9.926;2022-09-28T09:53:15;34.58;;;20.17;;
17953;SDS011;9102;53.548;9.926;2022-09-28T09:55:47;39.35;;;21.50;;
17953;SDS011;9102;53.548;9.926;2022-09-28T09:58:21;35.58;;;20.38;;
17953;SDS011;9102;53.548;9.926;2022-09-28T10:00:53;34.17;;;20.00;;
17953;SDS011;9102;53.548;9.926;2022-09-28T10:03:22;35.40;;;21.25;;
17953;SDS011;9102;53.548;9.926;2022-09-28T10:05:54;37.95;;;21.08;;
17953;SDS011;9102;53.548;9.926;2022-09-28T10:08:24;33.85;;;20.10;;
17953;SDS011;9102;53.548;9.926;2022-09-28T10:10:53;37.03;;;19.55;;
17953;SDS011;9102;53.548;9.926;2022-09-28T10:13:27;34.28;;;18.50;;
17953;SDS011;9102;53.548;9.926;2022-09-28T10:15:56;30.92;;;18.23;;
17953;SDS011;9102;53.548;9.926;2022-09-28T10:18:23;25.77;;;17.25;;
17953;SDS011;9102;53.548;9.926;2022-09-28T10:20:51;26.95;;;17.30;;
17953;SDS011;9102;53.548;9.926;2022-09-28T10:23:19;22.88;;;14.20;;
17953;SDS011;9102;53.548;9.926;2022-09-28T10:25:48;21.00;;;13.30;;
17953;SDS011;9102;53.548;9.926;2022-09-28T10:28:18;18.13;;;11.95;;
17953;SDS011;9102;53.548;9.926;2022-09-28T10:30:51;14.35;;;10.27;;
17953;SDS011;9102;53.548;9.926;2022-09-28T10:33:28;14.63;;;9.50;;
17953;SDS011;9102;53.548;9.926;2022-09-28T10:35:56;12.05;;;9.02;;
17953;SDS011;9102;53.548;9.926;2022-09-28T10:38:24;14.70;;;9.07;;
17953;SDS011;9102;53.548;9.926;2022-09-28T10:40:52;10.93;;;7.53;;
17953;SDS011;9102;53.548;9.926;2022-09-28T10:43:21;9.77;;;7.40;;
17953;SDS011;9102;53.548;9.926;2022-09-28T10:45:58;9.60;;;6.65;;
17953;SDS011;9102;53.548;9.926;2022-09-28T10:48:28;11.00;;;6.72;;
17953;SDS011;9102;53.548;9.926;2022-09-28T10:51:02;10.68;;;6.90;;
17953;SDS011;9102;53.548;9.926;2022-09-28T10:53:31;10.13;;;6.65;;
17953;SDS011;9102;53.548;9.926;2022-09-28T10:56:02;9.10;;;6.40;;
17953;SDS011;9102;53.548;9.926;2022-09-28T10:58:32;11.02;;;6.72;;
17953;SDS011;9102;53.548;9.926;2022-09-28T11:01:07;8.38;;;6.03;;
17953;SDS011;9102;53.548;9.926;2022-09-28T11:03:40;9.07;;;6.20;;
17953;SDS011;9102;53.548;9.926;2022-09-28T11:06:15;8.55;;;5.43;;
17953;SDS011;9102;53.548;9.926;2022-09-28T11:08:49;7.28;;;4.68;;
17953;SDS011;9102;53.548;9.926;2022-09-28T11:11:17;7.65;;;4.90;;
17953;SDS011;9102;53.548;9.926;2022-09-28T11:13:45;8.38;;;5.47;;
17953;SDS011;9102;53.548;9.926;2022-09-28T11:16:17;6.68;;;5.15;;
17953;SDS011;9102;53.548;9.926;2022-09-28T11:18:48;8.45;;;5.40;;
17953;SDS011;9102;53.548;9.926;2022-09-28T11:21:15;9.52;;;5.80;;
17953;SDS011;9102;53.548;9.926;2022-09-28T11:26:39;7.13;;;5.50;;
17953;SDS011;9102;53.548;9.926;2022-09-28T11:29:21;7.57;;;5.53;;
17953;SDS011;9102;53.548;9.926;2022-09-28T11:31:51;8.65;;;4.70;;
17953;SDS011;9102;53.548;9.926;2022-09-28T11:37:44;6.22;;;3.83;;
17953;SDS011;9102;53.548;9.926;2022-09-28T11:40:24;6.65;;;4.50;;
17953;SDS011;9102;53.548;9.926;2022-09-28T11:43:03;6.78;;;4.10;;
17953;SDS011;9102;53.548;9.926;2022-09-28T11:45:39;8.65;;;4.53;;
17953;SDS011;9102;53.548;9.926;2022-09-28T11:48:16;7.13;;;3.92;;
17953;SDS011;9102;53.548;9.926;2022-09-28T11:50:48;7.95;;;4.30;;
17953;SDS011;9102;53.548;9.926;2022-09-28T11:53:20;8.35;;;4.45;;
17953;SDS011;9102;53.548;9.926;2022-09-28T11:55:52;6.28;;;3.95;;
17953;SDS011;9102;53.548;9.926;2022-09-28T11:58:24;4.85;;;3.50;;
17953;SDS011;9102;53.548;9.926;2022-09-28T12:00:56;5.85;;;3.83;;
17953;SDS011;9102;53.548;9.926;2022-09-28T12:03:28;6.10;;;3.55;;
17953;SDS011;9102;53.548;9.926;2022-09-28T12:06:01;5.05;;;3.63;;
17953;SDS011;9102;53.548;9.926;2022-09-28T12:08:33;8.13;;;4.43;;
17953;SDS011;9102;53.548;9.926;2022-09-28T12:11:04;9.32;;;4.60;;
17953;SDS011;9102;53.548;9.926;2022-09-28T12:13:34;5.93;;;4.28;;
17953;SDS011;9102;53.548;9.926;2022-09-28T12:16:05;5.95;;;4.30;;
17953;SDS011;9102;53.548;9.926;2022-09-28T12:18:36;6.90;;;5.00;;
17953;SDS011;9102;53.548;9.926;2022-09-28T12:21:21;8.40;;;4.68;;
17953;SDS011;9102;53.548;9.926;2022-09-28T12:23:59;6.25;;;4.05;;
17953;SDS011;9102;53.548;9.926;2022-09-28T12:26:32;6.60;;;4.00;;
17953;SDS011;9102;53.548;9.926;2022-09-28T12:29:04;9.70;;;4.47;;
17953;SDS011;9102;53.548;9.926;2022-09-28T12:31:37;8.35;;;4.78;;
17953;SDS011;9102;53.548;9.926;2022-09-28T12:34:10;7.07;;;3.83;;
17953;SDS011;9102;53.548;9.926;2022-09-28T12:36:40;6.35;;;3.85;;
17953;SDS011;9102;53.548;9.926;2022-09-28T12:39:25;8.23;;;3.85;;
17953;SDS011;9102;53.548;9.926;2022-09-28T12:42:10;10.27;;;6.65;;
17953;SDS011;9102;53.548;9.926;2022-09-28T12:44:52;8.40;;;3.88;;
17953;SDS011;9102;53.548;9.926;2022-09-28T12:47:37;5.93;;;3.85;;
17953;SDS011;9102;53.548;9.926;2022-09-28T12:50:18;7.47;;;3.70;;
17953;SDS011;9102;53.548;9.926;2022-09-28T12:52:52;8.45;;;3.60;;
17953;SDS011;9102;53.548;9.926;2022-09-28T12:55:40;6.97;;;3.90;;
17953;SDS011;9102;53.548;9.926;2022-09-28T12:58:23;5.40;;;3.47;;
17953;SDS011;9102;53.548;9.926;2022-09-28T13:01:26;4.65;;;3.33;;
17953;SDS011;9102;53.548;9.926;2022-09-28T13:04:19;5.40;;;3.47;;
17953;SDS011;9102;53.548;9.926;2022-09-28T13:07:00;6.15;;;3.67;;
17953;SDS011;9102;53.548;9.926;2022-09-28T13:09:33;7.60;;;4.15;;
17953;SDS011;9102;53.548;9.926;2022-09-28T13:12:12;4.38;;;3.08;;
17953;SDS011;9102;53.548;9.926;2022-09-28T13:17:56;4.05;;;2.78;;
17953;SDS011;9102;53.548;9.926;2022-09-28T13:20:44;4.30;;;3.00;;
17953;SDS011;9102;53.548;9.926;2022-09-28T13:23:26;7.32;;;3.22;;
17953;SDS011;9102;53.548;9.926;2022-09-28T13:25:56;4.90;;;2.92;;
17953;SDS011;9102;53.548;9.926;2022-09-28T13:28:28;5.68;;;2.40;;
17953;SDS011;9102;53.548;9.926;2022-09-28T13:30:57;4.50;;;2.63;;
17953;SDS011;9102;53.548;9.926;2022-09-28T13:33:28;6.65;;;2.42;;
17953;SDS011;9102;53.548;9.926;2022-09-28T13:35:59;7.40;;;2.70;;
17953;SDS011;9102;53.548;9.926;2022-09-28T13:38:45;6.10;;;2.63;;
17953;SDS011;9102;53.548;9.926;2022-09-28T13:41:17;6.18;;;2.45;;
17953;SDS011;9102;53.548;9.926;2022-09-28T13:43:57;5.63;;;2.35;;
17953;SDS011;9102;53.548;9.926;2022-09-28T13:46:50;4.68;;;3.45;;
17953;SDS011;9102;53.548;9.926;2022-09-28T13:49:35;4.50;;;2.50;;
17953;SDS011;9102;53.548;9.926;2022-09-28T13:52:20;9.05;;;2.63;;
17953;SDS011;9102;53.548;9.926;2022-09-28T13:54:59;3.55;;;2.08;;
17953;SDS011;9102;53.548;9.926;2022-09-28T13:57:39;4.40;;;2.00;;
17953;SDS011;9102;53.548;9.926;2022-09-28T14:00:14;4.47;;;1.90;;
17953;SDS011;9102;53.548;9.926;2022-09-28T14:02:46;2.88;;;1.65;;
17953;SDS011;9102;53.548;9.926;2022-09-28T14:05:34;4.47;;;2.60;;
17953;SDS011;9102;53.548;9.926;2022-09-28T14:08:22;4.55;;;2.80;;
17953;SDS011;9102;53.548;9.926;2022-09-28T14:10:53;4.28;;;2.33;;
17953;SDS011;9102;53.548;9.926;2022-09-28T14:16:27;8.75;;;3.33;;
17953;SDS011;9102;53.548;9.926;2022-09-28T14:18:56;4.60;;;2.55;;
17953;SDS011;9102;53.548;9.926;2022-09-28T14:21:39;3.42;;;2.47;;
17953;SDS011;9102;53.548;9.926;2022-09-28T14:27:25;4.72;;;2.22;;
17953;SDS011;9102;53.548;9.926;2022-09-28T14:30:05;6.65;;;2.60;;
17953;SDS011;9102;53.548;9.926;2022-09-28T14:32:46;6.18;;;3.05;;
17953;SDS011;9102;53.548;9.926;2022-09-28T14:35:22;6.95;;;2.85;;
17953;SDS011;9102;53.548;9.926;2022-09-28T14:37:57;3.75;;;2.13;;
17953;SDS011;9102;53.548;9.926;2022-09-28T14:40:56;6.28;;;2.22;;
17953;SDS011;9102;53.548;9.926;2022-09-28T14:43:35;4.57;;;2.22;;
17953;SDS011;9102;53.548;9.926;2022-09-28T14:48:53;5.60;;;2.20;;
17953;SDS011;9102;53.548;9.926;2022-09-28T14:54:50;2.67;;;1.95;;
17953;SDS011;9102;53.548;9.926;2022-09-28T14:57:20;4.72;;;2.00;;
17953;SDS011;9102;53.548;9.926;2022-09-28T14:59:49;7.03;;;2.15;;
17953;SDS011;9102;53.548;9.926;2022-09-28T15:02:21;4.22;;;2.70;;
17953;SDS011;9102;53.548;9.926;2022-09-28T15:04:52;7.32;;;2.58;;
17953;SDS011;9102;53.548;9.926;2022-09-28T15:07:21;7.25;;;2.33;;
17953;SDS011;9102;53.548;9.926;2022-09-28T15:09:51;6.53;;;2.55;;
17953;SDS011;9102;53.548;9.926;2022-09-28T15:12:19;5.70;;;2.17;;
17953;SDS011;9102;53.548;9.926;2022-09-28T15:14:50;4.78;;;2.45;;
17953;SDS011;9102;53.548;9.926;2022-09-28T15:17:21;5.60;;;2.35;;
17953;SDS011;9102;53.548;9.926;2022-09-28T15:19:55;5.18;;;2.95;;
17953;SDS011;9102;53.548;9.926;2022-09-28T15:22:43;6.68;;;3.05;;
17953;SDS011;9102;53.548;9.926;2022-09-28T15:25:11;7.13;;;3.08;;
17953;SDS011;9102;53.548;9.926;2022-09-28T15:27:40;4.82;;;2.70;;
17953;SDS011;9102;53.548;9.926;2022-09-28T15:30:16;5.60;;;3.03;;
17953;SDS011;9102;53.548;9.926;2022-09-28T15:32:47;5.38;;;3.17;;
17953;SDS011;9102;53.548;9.926;2022-09-28T15:35:18;4.75;;;3.17;;
17953;SDS011;9102;53.548;9.926;2022-09-28T15:37:46;6.55;;;3.30;;
17953;SDS011;9102;53.548;9.926;2022-09-28T15:40:16;6.85;;;3.78;;
17953;SDS011;9102;53.548;9.926;2022-09-28T15:42:45;5.55;;;3.45;;
17953;SDS011;9102;53.548;9.926;2022-09-28T15:45:19;10.98;;;4.57;;
17953;SDS011;9102;53.548;9.926;2022-09-28T15:47:50;5.93;;;3.88;;